createdAt,value
2023-02-03T00:00:41.577Z,972.02
2023-02-03T00:01:41.507Z,971.95
2023-02-03T00:02:41.529Z,971.97
2023-02-03T00:03:41.456Z,972.04
2023-02-03T00:04:41.443Z,971.95
2023-02-03T00:05:41.465Z,971.99
2023-02-03T00:06:41.420Z,972.05
2023-02-03T00:07:41.447Z,972.01
2023-02-03T00:08:41.397Z,972.04
2023-02-03T00:09:41.399Z,972.00
2023-02-03T00:10:41.374Z,972.05
2023-02-03T00:11:41.402Z,972.05
2023-02-03T00:12:41.408Z,972.04
2023-02-03T00:13:41.361Z,972.02
2023-02-03T00:14:41.339Z,972.04
2023-02-03T00:15:41.323Z,972.12
2023-02-03T00:16:41.404Z,972.08
2023-02-03T00:17:41.331Z,972.03
2023-02-03T00:18:41.295Z,972.07
2023-02-03T00:19:41.299Z,972.08
2023-02-03T00:20:42.144Z,972.00
2023-02-03T00:21:41.284Z,972.03
2023-02-03T00:22:41.248Z,971.99
2023-02-03T00:23:41.802Z,971.96
2023-02-03T00:24:41.242Z,972.03
2023-02-03T00:25:41.224Z,972.04
2023-02-03T00:26:41.213Z,971.96
2023-02-03T00:27:41.248Z,971.96
2023-02-03T00:28:41.291Z,971.97
2023-02-03T00:29:41.182Z,971.97
2023-02-03T00:30:41.168Z,971.89
2023-02-03T00:31:41.297Z,971.88
2023-02-03T00:32:41.201Z,971.86
2023-02-03T00:33:41.135Z,971.86
2023-02-03T00:34:41.145Z,971.79
2023-02-03T00:35:41.123Z,971.79
2023-02-03T00:36:42.983Z,971.81
2023-02-03T00:37:41.116Z,971.80
2023-02-03T00:38:41.095Z,971.78
2023-02-03T00:39:41.093Z,971.77
2023-02-03T00:40:41.066Z,971.72
2023-02-03T00:41:41.194Z,971.71
2023-02-03T00:42:41.059Z,971.74
2023-02-03T00:43:41.083Z,971.63
2023-02-03T00:44:41.045Z,971.69
2023-02-03T00:45:41.043Z,971.63
2023-02-03T00:46:41.022Z,971.66
2023-02-03T00:47:41.016Z,971.61
2023-02-03T00:48:40.982Z,971.60
2023-02-03T00:49:40.955Z,971.50
2023-02-03T00:50:40.942Z,971.50
2023-02-03T00:51:40.978Z,971.52
2023-02-03T00:52:40.922Z,971.48
2023-02-03T00:53:40.919Z,971.47
2023-02-03T00:54:40.956Z,971.43
2023-02-03T00:55:40.891Z,971.44
2023-02-03T00:56:40.975Z,971.38
2023-02-03T00:57:40.908Z,971.36
2023-02-03T00:58:40.916Z,971.33
2023-02-03T00:59:40.884Z,971.34
2023-02-03T01:00:41.368Z,971.34
2023-02-03T01:01:40.833Z,971.29
2023-02-03T01:02:40.921Z,971.32
2023-02-03T01:03:40.814Z,971.31
2023-02-03T01:04:40.798Z,971.38
2023-02-03T01:05:40.784Z,971.29
2023-02-03T01:06:40.802Z,971.32
2023-02-03T01:07:40.772Z,971.30
2023-02-03T01:08:40.767Z,971.31
2023-02-03T01:09:40.738Z,971.23
2023-02-03T01:10:40.751Z,971.23
2023-02-03T01:11:40.768Z,971.20
2023-02-03T01:12:40.705Z,971.20
2023-02-03T01:13:40.709Z,971.14
2023-02-03T01:14:40.704Z,971.16
2023-02-03T01:15:40.698Z,971.13
2023-02-03T01:16:40.719Z,971.06
2023-02-03T01:17:40.672Z,971.11
2023-02-03T01:18:40.640Z,971.12
2023-02-03T01:19:40.707Z,971.09
2023-02-03T01:20:40.635Z,971.14
2023-02-03T01:21:40.618Z,971.09
2023-02-03T01:22:40.624Z,971.08
2023-02-03T01:23:40.599Z,971.08
2023-02-03T01:24:40.591Z,971.13
2023-02-03T01:25:40.599Z,971.12
2023-02-03T01:26:40.585Z,971.12
2023-02-03T01:27:40.583Z,971.14
2023-02-03T01:28:40.550Z,971.09
2023-02-03T01:29:40.577Z,971.12
2023-02-03T01:30:40.625Z,971.08
2023-02-03T01:31:40.672Z,971.12
2023-02-03T01:32:40.536Z,971.10
2023-02-03T01:33:40.483Z,971.08
2023-02-03T01:34:40.491Z,971.07
2023-02-03T01:35:40.451Z,971.04
2023-02-03T01:36:40.518Z,971.04
2023-02-03T01:37:40.455Z,971.02
2023-02-03T01:38:40.425Z,971.08
2023-02-03T01:39:40.431Z,971.07
2023-02-03T01:40:40.411Z,971.05
2023-02-03T01:41:40.401Z,971.08
2023-02-03T01:42:40.414Z,971.03
2023-02-03T01:43:40.414Z,970.99
2023-02-03T01:44:40.412Z,970.99
2023-02-03T01:45:40.386Z,970.90
2023-02-03T01:46:40.385Z,970.88
2023-02-03T01:47:40.359Z,970.93
2023-02-03T01:48:40.316Z,970.92
2023-02-03T01:49:40.361Z,970.94
2023-02-03T01:50:40.295Z,970.91
2023-02-03T01:51:40.293Z,970.92
2023-02-03T01:52:40.288Z,970.95
2023-02-03T01:53:40.280Z,970.90
2023-02-03T01:54:40.390Z,970.90
2023-02-03T01:55:40.263Z,970.91
2023-02-03T01:56:40.247Z,970.87
2023-02-03T01:57:40.228Z,970.85
2023-02-03T01:58:40.246Z,970.88
2023-02-03T01:59:40.228Z,970.83
2023-02-03T02:00:40.218Z,970.84
2023-02-03T02:01:40.257Z,970.81
2023-02-03T02:02:40.287Z,970.83
2023-02-03T02:03:40.210Z,970.87
2023-02-03T02:04:40.162Z,970.78
2023-02-03T02:05:40.158Z,970.83
2023-02-03T02:06:40.146Z,970.86
2023-02-03T02:07:40.128Z,970.85
2023-02-03T02:08:40.123Z,970.82
2023-02-03T02:09:40.133Z,970.78
2023-02-03T02:10:40.084Z,970.85
2023-02-03T02:11:40.085Z,970.81
2023-02-03T02:12:40.178Z,970.83
2023-02-03T02:13:40.079Z,970.78
2023-02-03T02:14:40.047Z,970.80
2023-02-03T02:15:40.068Z,970.81
2023-02-03T02:16:40.019Z,970.77
2023-02-03T02:17:40.025Z,970.81
2023-02-03T02:18:40.053Z,970.81
2023-02-03T02:19:40.017Z,970.83
2023-02-03T02:20:40.002Z,970.77
2023-02-03T02:21:39.983Z,970.76
2023-02-03T02:22:39.954Z,970.74
2023-02-03T02:23:39.948Z,970.75
2023-02-03T02:24:39.929Z,970.78
2023-02-03T02:25:39.974Z,970.71
2023-02-03T02:26:39.930Z,970.76
2023-02-03T02:27:39.906Z,970.70
2023-02-03T02:28:39.891Z,970.73
2023-02-03T02:29:39.901Z,970.75
2023-02-03T02:30:39.961Z,970.73
2023-02-03T02:31:40.034Z,970.71
2023-02-03T02:32:39.852Z,970.71
2023-02-03T02:33:39.843Z,970.76
2023-02-03T02:34:39.831Z,970.73
2023-02-03T02:35:40.723Z,970.70
2023-02-03T02:36:39.809Z,970.71
2023-02-03T02:37:39.796Z,970.68
2023-02-03T02:38:39.791Z,970.70
2023-02-03T02:39:39.793Z,970.65
2023-02-03T02:40:39.763Z,970.67
2023-02-03T02:41:39.758Z,970.62
2023-02-03T02:42:39.750Z,970.57
2023-02-03T02:43:39.737Z,970.60
2023-02-03T02:44:39.789Z,970.61
2023-02-03T02:45:39.704Z,970.60
2023-02-03T02:46:39.834Z,970.50
2023-02-03T02:47:39.702Z,970.59
2023-02-03T02:48:39.682Z,970.59
2023-02-03T02:49:39.676Z,970.60
2023-02-03T02:50:39.657Z,970.61
2023-02-03T02:51:39.706Z,970.63
2023-02-03T02:52:39.639Z,970.66
2023-02-03T02:53:39.635Z,970.66
2023-02-03T02:54:39.670Z,970.67
2023-02-03T02:55:39.605Z,970.64
2023-02-03T02:56:39.620Z,970.64
2023-02-03T02:57:39.613Z,970.65
2023-02-03T02:58:39.614Z,970.61
2023-02-03T02:59:39.566Z,970.68
2023-02-03T03:00:39.557Z,970.68
2023-02-03T03:01:39.638Z,970.64
2023-02-03T03:02:39.546Z,970.63
2023-02-03T03:03:39.515Z,970.67
2023-02-03T03:04:39.563Z,970.65
2023-02-03T03:05:39.495Z,970.59
2023-02-03T03:06:39.496Z,970.63
2023-02-03T03:07:39.483Z,970.61
2023-02-03T03:08:39.475Z,970.66
2023-02-03T03:09:39.481Z,970.61
2023-02-03T03:10:39.447Z,970.64
2023-02-03T03:11:39.463Z,970.59
2023-02-03T03:12:39.421Z,970.62
2023-02-03T03:13:39.517Z,970.67
2023-02-03T03:14:39.433Z,970.57
2023-02-03T03:15:39.458Z,970.59
2023-02-03T03:16:39.408Z,970.54
2023-02-03T03:17:39.399Z,970.53
2023-02-03T03:18:39.374Z,970.58
2023-02-03T03:19:39.364Z,970.51
2023-02-03T03:20:39.335Z,970.49
2023-02-03T03:21:39.352Z,970.43
2023-02-03T03:22:39.391Z,970.45
2023-02-03T03:23:39.379Z,970.46
2023-02-03T03:24:39.298Z,970.52
2023-02-03T03:25:39.317Z,970.47
2023-02-03T03:26:39.331Z,970.50
2023-02-03T03:27:39.300Z,970.49
2023-02-03T03:28:39.326Z,970.52
2023-02-03T03:29:39.240Z,970.51
2023-02-03T03:30:39.290Z,970.53
2023-02-03T03:31:39.401Z,970.56
2023-02-03T03:32:39.196Z,970.51
2023-02-03T03:33:39.204Z,970.56
2023-02-03T03:34:39.228Z,970.55
2023-02-03T03:35:39.317Z,970.53
2023-02-03T03:36:39.203Z,970.51
2023-02-03T03:37:39.165Z,970.54
2023-02-03T03:38:39.146Z,970.53
2023-02-03T03:39:39.132Z,970.54
2023-02-03T03:40:39.149Z,970.55
2023-02-03T03:41:39.124Z,970.54
2023-02-03T03:42:39.114Z,970.55
2023-02-03T03:43:39.098Z,970.61
2023-02-03T03:44:39.072Z,970.63
2023-02-03T03:45:39.075Z,970.64
2023-02-03T03:46:39.145Z,970.65
2023-02-03T03:47:39.074Z,970.61
2023-02-03T03:48:39.064Z,970.65
2023-02-03T03:49:39.036Z,970.62
2023-02-03T03:50:39.016Z,970.61
2023-02-03T03:51:39.022Z,970.60
2023-02-03T03:52:39.037Z,970.62
2023-02-03T03:53:38.976Z,970.63
2023-02-03T03:54:38.963Z,970.64
2023-02-03T03:55:38.980Z,970.68
2023-02-03T03:56:38.944Z,970.69
2023-02-03T03:57:38.969Z,970.72
2023-02-03T03:58:38.939Z,970.73
2023-02-03T03:59:38.925Z,970.75
2023-02-03T04:00:38.908Z,970.81
2023-02-03T04:01:39.164Z,970.77
2023-02-03T04:02:39.025Z,970.76
2023-02-03T04:03:38.872Z,970.75
2023-02-03T04:04:38.875Z,970.77
2023-02-03T04:05:38.855Z,970.74
2023-02-03T04:06:38.846Z,970.74
2023-02-03T04:07:38.860Z,970.74
2023-02-03T04:08:38.827Z,970.73
2023-02-03T04:09:38.843Z,970.80
2023-02-03T04:10:38.826Z,970.80
2023-02-03T04:11:38.783Z,970.78
2023-02-03T04:12:38.777Z,970.78
2023-02-03T04:13:38.834Z,970.76
2023-02-03T04:14:39.045Z,970.73
2023-02-03T04:15:38.745Z,970.79
2023-02-03T04:16:38.734Z,970.83
2023-02-03T04:17:38.727Z,970.80
2023-02-03T04:18:38.725Z,970.84
2023-02-03T04:19:38.696Z,970.82
2023-02-03T04:20:38.699Z,970.82
2023-02-03T04:21:38.714Z,970.84
2023-02-03T04:22:38.669Z,970.83
2023-02-03T04:23:38.669Z,970.86
2023-02-03T04:24:38.644Z,970.81
2023-02-03T04:25:38.644Z,970.86
2023-02-03T04:26:38.655Z,970.89
2023-02-03T04:27:38.661Z,970.84
2023-02-03T04:28:38.615Z,970.88
2023-02-03T04:29:38.598Z,970.91
2023-02-03T04:30:38.629Z,970.94
2023-02-03T04:31:38.677Z,970.90
2023-02-03T04:32:38.553Z,970.92
2023-02-03T04:33:38.586Z,970.94
2023-02-03T04:34:38.539Z,970.96
2023-02-03T04:35:38.523Z,970.90
2023-02-03T04:36:38.601Z,970.94
2023-02-03T04:37:38.521Z,970.91
2023-02-03T04:38:38.499Z,970.89
2023-02-03T04:39:38.481Z,970.92
2023-02-03T04:40:38.471Z,970.98
2023-02-03T04:41:38.474Z,970.95
2023-02-03T04:42:38.470Z,970.90
2023-02-03T04:43:38.453Z,970.94
2023-02-03T04:44:38.423Z,971.00
2023-02-03T04:45:38.463Z,970.96
2023-02-03T04:46:38.409Z,971.03
2023-02-03T04:47:38.424Z,970.98
2023-02-03T04:48:38.392Z,971.00
2023-02-03T04:49:38.377Z,970.99
2023-02-03T04:50:39.282Z,970.95
2023-02-03T04:51:38.383Z,971.05
2023-02-03T04:52:38.375Z,971.04
2023-02-03T04:53:38.359Z,971.07
2023-02-03T04:54:38.342Z,971.03
2023-02-03T04:55:38.318Z,971.11
2023-02-03T04:56:38.355Z,971.11
2023-02-03T04:57:38.307Z,971.08
2023-02-03T04:58:38.286Z,971.09
2023-02-03T04:59:38.288Z,971.08
2023-02-03T05:00:38.317Z,971.05
2023-02-03T05:01:38.252Z,970.99
2023-02-03T05:02:38.276Z,971.07
2023-02-03T05:03:38.313Z,971.04
2023-02-03T05:04:38.217Z,971.08
2023-02-03T05:05:38.213Z,971.11
2023-02-03T05:06:38.259Z,971.13
2023-02-03T05:07:38.189Z,971.11
2023-02-03T05:08:38.169Z,971.05
2023-02-03T05:09:38.169Z,971.15
2023-02-03T05:10:38.152Z,971.19
2023-02-03T05:11:38.182Z,971.14
2023-02-03T05:12:38.134Z,971.21
2023-02-03T05:13:38.176Z,971.19
2023-02-03T05:14:38.134Z,971.16
2023-02-03T05:15:38.110Z,971.23
2023-02-03T05:16:38.176Z,971.21
2023-02-03T05:17:38.068Z,971.23
2023-02-03T05:18:38.105Z,971.18
2023-02-03T05:19:38.065Z,971.23
2023-02-03T05:20:38.045Z,971.17
2023-02-03T05:21:38.031Z,971.26
2023-02-03T05:22:38.041Z,971.21
2023-02-03T05:23:38.052Z,971.17
2023-02-03T05:24:38.012Z,971.24
2023-02-03T05:25:38.067Z,971.17
2023-02-03T05:26:37.998Z,971.15
2023-02-03T05:27:38.034Z,971.14
2023-02-03T05:28:38.027Z,971.13
2023-02-03T05:29:37.965Z,971.21
2023-02-03T05:30:37.955Z,971.13
2023-02-03T05:31:37.968Z,971.15
2023-02-03T05:32:37.913Z,971.10
2023-02-03T05:33:37.920Z,971.11
2023-02-03T05:34:37.919Z,971.10
2023-02-03T05:35:37.892Z,971.13
2023-02-03T05:36:37.866Z,971.14
2023-02-03T05:37:37.863Z,971.18
2023-02-03T05:38:37.860Z,971.20
2023-02-03T05:39:37.868Z,971.23
2023-02-03T05:40:37.845Z,971.22
2023-02-03T05:41:37.882Z,971.27
2023-02-03T05:42:37.824Z,971.29
2023-02-03T05:43:37.804Z,971.31
2023-02-03T05:44:37.804Z,971.32
2023-02-03T05:45:37.817Z,971.34
2023-02-03T05:46:37.779Z,971.38
2023-02-03T05:47:37.791Z,971.34
2023-02-03T05:48:37.749Z,971.35
2023-02-03T05:49:37.757Z,971.39
2023-02-03T05:50:38.779Z,971.46
2023-02-03T05:51:37.735Z,971.43
2023-02-03T05:52:37.700Z,971.46
2023-02-03T05:53:37.690Z,971.45
2023-02-03T05:54:37.710Z,971.45
2023-02-03T05:55:37.675Z,971.44
2023-02-03T05:56:37.670Z,971.47
2023-02-03T05:57:37.673Z,971.45
2023-02-03T05:58:37.635Z,971.42
2023-02-03T05:59:37.661Z,971.44
2023-02-03T06:00:37.604Z,971.41
2023-02-03T06:01:37.636Z,971.43
2023-02-03T06:02:37.601Z,971.44
2023-02-03T06:03:37.638Z,971.51
2023-02-03T06:04:37.652Z,971.54
2023-02-03T06:05:37.556Z,971.48
2023-02-03T06:06:37.556Z,971.53
2023-02-03T06:07:37.562Z,971.52
2023-02-03T06:08:37.527Z,971.50
2023-02-03T06:09:37.542Z,971.49
2023-02-03T06:10:37.514Z,971.54
2023-02-03T06:11:37.498Z,971.46
2023-02-03T06:12:37.510Z,971.53
2023-02-03T06:13:37.474Z,971.48
2023-02-03T06:14:37.505Z,971.45
2023-02-03T06:15:37.467Z,971.53
2023-02-03T06:16:37.528Z,971.51
2023-02-03T06:17:37.433Z,971.49
2023-02-03T06:18:37.424Z,971.62
2023-02-03T06:19:37.404Z,971.58
2023-02-03T06:20:37.416Z,971.57
2023-02-03T06:21:37.393Z,971.57
2023-02-03T06:22:37.423Z,971.51
2023-02-03T06:23:37.375Z,971.50
2023-02-03T06:24:37.382Z,971.56
2023-02-03T06:25:37.340Z,971.56
2023-02-03T06:26:37.339Z,971.58
2023-02-03T06:27:37.366Z,971.58
2023-02-03T06:28:37.337Z,971.56
2023-02-03T06:29:37.309Z,971.61
2023-02-03T06:30:37.366Z,971.58
2023-02-03T06:31:37.486Z,971.66
2023-02-03T06:32:37.311Z,971.59
2023-02-03T06:33:37.322Z,971.59
2023-02-03T06:34:37.281Z,971.61
2023-02-03T06:35:37.246Z,971.63
2023-02-03T06:36:37.258Z,971.69
2023-02-03T06:37:37.220Z,971.68
2023-02-03T06:38:37.215Z,971.64
2023-02-03T06:39:37.228Z,971.64
2023-02-03T06:40:37.278Z,971.71
2023-02-03T06:41:37.170Z,971.76
2023-02-03T06:42:37.167Z,971.79
2023-02-03T06:43:37.150Z,971.77
2023-02-03T06:44:37.189Z,971.77
2023-02-03T06:45:37.139Z,971.80
2023-02-03T06:46:37.166Z,971.87
2023-02-03T06:47:37.145Z,971.88
2023-02-03T06:48:37.096Z,971.86
2023-02-03T06:49:37.115Z,971.85
2023-02-03T06:50:37.131Z,971.90
2023-02-03T06:51:37.090Z,971.88
2023-02-03T06:52:37.063Z,971.95
2023-02-03T06:53:37.048Z,971.94
2023-02-03T06:54:37.042Z,971.90
2023-02-03T06:55:37.062Z,971.93
2023-02-03T06:56:37.016Z,971.96
2023-02-03T06:57:37.006Z,971.95
2023-02-03T06:58:37.003Z,971.95
2023-02-03T06:59:36.976Z,971.96
2023-02-03T07:00:37.011Z,971.99
2023-02-03T07:01:37.020Z,971.98
2023-02-03T07:02:36.991Z,972.06
2023-02-03T07:03:36.955Z,972.06
2023-02-03T07:04:36.928Z,972.07
2023-02-03T07:05:37.875Z,972.08
2023-02-03T07:06:36.918Z,972.15
2023-02-03T07:07:36.921Z,972.11
2023-02-03T07:08:36.899Z,972.12
2023-02-03T07:09:36.880Z,972.15
2023-02-03T07:10:36.903Z,972.17
2023-02-03T07:11:36.852Z,972.10
2023-02-03T07:12:36.949Z,972.16
2023-02-03T07:13:36.844Z,972.09
2023-02-03T07:14:36.825Z,972.15
2023-02-03T07:15:36.839Z,972.20
2023-02-03T07:16:36.860Z,972.12
2023-02-03T07:17:36.798Z,972.19
2023-02-03T07:18:46.853Z,972.20
2023-02-03T07:19:36.780Z,972.22
2023-02-03T07:20:36.787Z,972.19
2023-02-03T07:21:36.776Z,972.23
2023-02-03T07:22:36.774Z,972.24
2023-02-03T07:23:36.734Z,972.24
2023-02-03T07:24:36.732Z,972.18
2023-02-03T07:25:36.727Z,972.23
2023-02-03T07:26:36.734Z,972.26
2023-02-03T07:27:36.723Z,972.28
2023-02-03T07:28:36.705Z,972.28
2023-02-03T07:29:36.680Z,972.37
2023-02-03T07:30:37.553Z,972.37
2023-02-03T07:31:36.814Z,972.33
2023-02-03T07:32:36.646Z,972.30
2023-02-03T07:33:36.619Z,972.31
2023-02-03T07:34:36.847Z,972.38
2023-02-03T07:35:36.786Z,972.31
2023-02-03T07:36:36.589Z,972.34
2023-02-03T07:37:36.608Z,972.29
2023-02-03T07:38:36.591Z,972.34
2023-02-03T07:39:36.553Z,972.43
2023-02-03T07:40:36.549Z,972.43
2023-02-03T07:41:36.565Z,972.44
2023-02-03T07:42:36.535Z,972.47
2023-02-03T07:43:36.573Z,972.46
2023-02-03T07:44:36.524Z,972.52
2023-02-03T07:45:36.683Z,972.51
2023-02-03T07:46:36.668Z,972.52
2023-02-03T07:47:36.467Z,972.57
2023-02-03T07:48:36.518Z,972.60
2023-02-03T07:49:36.535Z,972.58
2023-02-03T07:50:36.479Z,972.62
2023-02-03T07:51:36.557Z,972.60
2023-02-03T07:52:36.466Z,972.61
2023-02-03T07:53:36.440Z,972.68
2023-02-03T07:54:36.405Z,972.65
2023-02-03T07:55:36.390Z,972.70
2023-02-03T07:56:36.440Z,972.65
2023-02-03T07:57:36.384Z,972.71
2023-02-03T07:58:36.398Z,972.67
2023-02-03T07:59:36.344Z,972.64
2023-02-03T08:00:36.353Z,972.68
2023-02-03T08:01:36.409Z,972.74
2023-02-03T08:02:37.120Z,972.71
2023-02-03T08:03:36.496Z,972.72
2023-02-03T08:04:36.363Z,972.77
2023-02-03T08:05:36.288Z,972.78
2023-02-03T08:06:36.298Z,972.81
2023-02-03T08:07:36.253Z,972.87
2023-02-03T08:08:36.429Z,972.86
2023-02-03T08:09:36.246Z,972.89
2023-02-03T08:10:36.234Z,972.93
2023-02-03T08:11:36.286Z,972.92
2023-02-03T08:12:36.250Z,972.96
2023-02-03T08:13:36.244Z,972.98
2023-02-03T08:14:36.183Z,973.01
2023-02-03T08:15:36.274Z,973.01
2023-02-03T08:16:36.233Z,972.97
2023-02-03T08:17:36.159Z,972.99
2023-02-03T08:18:36.132Z,973.00
2023-02-03T08:19:36.505Z,972.99
2023-02-03T08:20:36.133Z,973.03
2023-02-03T08:21:36.142Z,973.00
2023-02-03T08:22:36.159Z,973.01
2023-02-03T08:23:36.083Z,973.01
2023-02-03T08:24:36.121Z,973.00
2023-02-03T08:25:36.075Z,973.08
2023-02-03T08:26:36.060Z,973.10
2023-02-03T08:27:36.046Z,973.10
2023-02-03T08:28:36.013Z,973.10
2023-02-03T08:29:36.017Z,973.10
2023-02-03T08:30:36.085Z,973.18
2023-02-03T08:31:36.125Z,973.16
2023-02-03T08:32:35.987Z,973.20
2023-02-03T08:33:35.975Z,973.18
2023-02-03T08:34:35.961Z,973.24
2023-02-03T08:35:35.982Z,973.27
2023-02-03T08:36:42.566Z,973.31
2023-02-03T08:37:35.942Z,973.27
2023-02-03T08:38:35.932Z,973.33
2023-02-03T08:39:35.924Z,973.37
2023-02-03T08:40:35.922Z,973.36
2023-02-03T08:41:35.883Z,973.36
2023-02-03T08:42:35.892Z,973.36
2023-02-03T08:43:35.856Z,973.41
2023-02-03T08:44:35.864Z,973.41
2023-02-03T08:45:35.951Z,973.45
2023-02-03T08:46:35.864Z,973.47
2023-02-03T08:47:35.805Z,973.50
2023-02-03T08:48:35.819Z,973.53
2023-02-03T08:49:35.796Z,973.51
2023-02-03T08:50:35.803Z,973.55
2023-02-03T08:51:35.789Z,973.65
2023-02-03T08:52:35.784Z,973.65
2023-02-03T08:53:35.770Z,973.68
2023-02-03T08:54:35.724Z,973.64
2023-02-03T08:55:35.830Z,973.68
2023-02-03T08:56:35.712Z,973.71
2023-02-03T08:57:35.753Z,973.71
2023-02-03T08:58:35.712Z,973.76
2023-02-03T08:59:35.693Z,973.76
2023-02-03T09:00:35.672Z,973.79
2023-02-03T09:01:35.663Z,973.84
2023-02-03T09:02:35.684Z,973.79
2023-02-03T09:03:35.646Z,973.82
2023-02-03T09:04:35.630Z,973.81
2023-02-03T09:05:35.629Z,973.86
2023-02-03T09:06:35.626Z,973.85
2023-02-03T09:07:35.621Z,973.90
2023-02-03T09:08:35.600Z,973.93
2023-02-03T09:09:35.576Z,973.91
2023-02-03T09:10:35.592Z,973.93
2023-02-03T09:11:35.582Z,973.96
2023-02-03T09:12:35.598Z,973.92
2023-02-03T09:13:37.111Z,973.93
2023-02-03T09:14:35.508Z,973.98
2023-02-03T09:15:35.520Z,973.92
2023-02-03T09:16:35.593Z,973.93
2023-02-03T09:17:35.504Z,974.00
2023-02-03T09:18:35.565Z,974.04
2023-02-03T09:19:36.639Z,974.03
2023-02-03T09:20:35.565Z,974.09
2023-02-03T09:21:42.903Z,974.12
2023-02-03T09:22:35.463Z,974.21
2023-02-03T09:23:35.461Z,974.23
2023-02-03T09:24:35.428Z,974.26
2023-02-03T09:25:35.458Z,974.28
2023-02-03T09:26:35.401Z,974.27
2023-02-03T09:27:35.382Z,974.35
2023-02-03T09:28:35.404Z,974.35
2023-02-03T09:29:35.371Z,974.41
2023-02-03T09:30:35.424Z,974.35
2023-02-03T09:31:35.417Z,974.38
2023-02-03T09:32:35.374Z,974.47
2023-02-03T09:33:35.324Z,974.45
2023-02-03T09:34:35.382Z,974.49
2023-02-03T09:35:35.307Z,974.49
2023-02-03T09:36:35.319Z,974.45
2023-02-03T09:37:35.296Z,974.47
2023-02-03T09:38:35.263Z,974.48
2023-02-03T09:39:35.263Z,974.47
2023-02-03T09:40:35.269Z,974.48
2023-02-03T09:41:35.256Z,974.47
2023-02-03T09:42:35.252Z,974.49
2023-02-03T09:43:35.694Z,974.50
2023-02-03T09:44:35.203Z,974.57
2023-02-03T09:45:35.272Z,974.55
2023-02-03T09:46:35.222Z,974.57
2023-02-03T09:47:35.193Z,974.59
2023-02-03T09:48:35.169Z,974.61
2023-02-03T09:49:35.131Z,974.64
2023-02-03T09:50:35.136Z,974.58
2023-02-03T09:51:35.133Z,974.66
2023-02-03T09:52:35.228Z,974.67
2023-02-03T09:53:35.182Z,974.72
2023-02-03T09:54:35.099Z,974.72
2023-02-03T09:55:35.069Z,974.74
2023-02-03T09:56:35.095Z,974.78
2023-02-03T09:57:35.060Z,974.82
2023-02-03T09:58:35.071Z,974.78
2023-02-03T09:59:35.067Z,974.83
2023-02-03T10:00:35.054Z,974.80
2023-02-03T10:01:35.071Z,974.87
2023-02-03T10:02:35.069Z,974.90
2023-02-03T10:03:34.993Z,974.89
2023-02-03T10:04:34.973Z,974.88
2023-02-03T10:05:34.975Z,974.92
2023-02-03T10:06:35.045Z,974.92
2023-02-03T10:07:35.017Z,974.98
2023-02-03T10:08:35.450Z,974.96
2023-02-03T10:09:35.595Z,974.97
2023-02-03T10:10:34.926Z,975.00
2023-02-03T10:11:34.923Z,975.02
2023-02-03T10:12:34.903Z,975.04
2023-02-03T10:13:36.614Z,975.02
2023-02-03T10:14:34.888Z,975.08
2023-02-03T10:15:34.929Z,975.07
2023-02-03T10:16:34.995Z,975.04
2023-02-03T10:17:34.851Z,975.14
2023-02-03T10:18:34.854Z,975.09
2023-02-03T10:19:34.846Z,975.17
2023-02-03T10:20:34.834Z,975.17
2023-02-03T10:21:34.804Z,975.19
2023-02-03T10:22:34.796Z,975.22
2023-02-03T10:23:34.781Z,975.23
2023-02-03T10:24:34.783Z,975.25
2023-02-03T10:25:34.781Z,975.31
2023-02-03T10:26:34.780Z,975.31
2023-02-03T10:27:34.759Z,975.31
2023-02-03T10:28:34.757Z,975.35
2023-02-03T10:29:34.751Z,975.36
2023-02-03T10:30:34.905Z,975.37
2023-02-03T10:31:34.878Z,975.37
2023-02-03T10:32:34.702Z,975.40
2023-02-03T10:33:34.703Z,975.46
2023-02-03T10:34:34.649Z,975.46
2023-02-03T10:35:34.681Z,975.47
2023-02-03T10:36:34.651Z,975.47
2023-02-03T10:37:34.630Z,975.47
2023-02-03T10:38:34.623Z,975.45
2023-02-03T10:39:34.621Z,975.56
2023-02-03T10:40:34.692Z,975.55
2023-02-03T10:41:34.813Z,975.50
2023-02-03T10:42:34.562Z,975.55
2023-02-03T10:43:34.557Z,975.55
2023-02-03T10:44:34.585Z,975.57
2023-02-03T10:45:34.540Z,975.57
2023-02-03T10:46:34.617Z,975.62
2023-02-03T10:47:34.534Z,975.66
2023-02-03T10:48:34.533Z,975.64
2023-02-03T10:49:34.484Z,975.71
2023-02-03T10:50:34.491Z,975.68
2023-02-03T10:51:34.570Z,975.78
2023-02-03T10:52:34.463Z,975.71
2023-02-03T10:53:34.996Z,975.75
2023-02-03T10:54:35.192Z,975.68
2023-02-03T10:55:34.451Z,975.75
2023-02-03T10:56:34.451Z,975.71
2023-02-03T10:57:34.456Z,975.80
2023-02-03T10:58:34.446Z,975.82
2023-02-03T10:59:34.396Z,975.78
2023-02-03T11:00:34.459Z,975.84
2023-02-03T11:01:34.441Z,975.89
2023-02-03T11:02:34.450Z,975.87
2023-02-03T11:03:34.345Z,975.93
2023-02-03T11:04:34.330Z,975.92
2023-02-03T11:05:34.624Z,975.94
2023-02-03T11:06:34.346Z,975.98
2023-02-03T11:07:34.305Z,975.98
2023-02-03T11:08:34.306Z,976.06
2023-02-03T11:09:34.332Z,976.04
2023-02-03T11:10:34.295Z,976.05
2023-02-03T11:11:34.304Z,976.03
2023-02-03T11:12:35.192Z,976.10
2023-02-03T11:13:34.248Z,976.10
2023-02-03T11:14:34.239Z,976.13
2023-02-03T11:15:34.272Z,976.11
2023-02-03T11:16:34.206Z,976.08
2023-02-03T11:17:34.334Z,976.07
2023-02-03T11:18:34.198Z,976.14
2023-02-03T11:19:34.200Z,976.17
2023-02-03T11:20:35.009Z,976.20
2023-02-03T11:21:34.181Z,976.22
2023-02-03T11:22:34.137Z,976.25
2023-02-03T11:23:34.171Z,976.30
2023-02-03T11:24:34.133Z,976.35
2023-02-03T11:25:34.105Z,976.37
2023-02-03T11:26:34.162Z,976.44
2023-02-03T11:27:34.623Z,976.43
2023-02-03T11:28:34.624Z,976.44
2023-02-03T11:29:34.058Z,976.51
2023-02-03T11:30:34.613Z,976.49
2023-02-03T11:31:34.210Z,976.51
2023-02-03T11:32:34.128Z,976.57
2023-02-03T11:33:34.039Z,976.60
2023-02-03T11:34:34.020Z,976.61
2023-02-03T11:35:34.006Z,976.65
2023-02-03T11:36:34.034Z,976.66
2023-02-03T11:37:34.009Z,976.72
2023-02-03T11:38:34.014Z,976.69
2023-02-03T11:39:33.971Z,976.77
2023-02-03T11:40:34.066Z,976.74
2023-02-03T11:41:34.009Z,976.79
2023-02-03T11:42:34.036Z,976.81
2023-02-03T11:43:33.921Z,976.80
2023-02-03T11:44:33.932Z,976.86
2023-02-03T11:45:34.646Z,976.88
2023-02-03T11:46:33.951Z,976.90
2023-02-03T11:47:33.890Z,976.90
2023-02-03T11:48:33.886Z,976.93
2023-02-03T11:49:33.861Z,976.96
2023-02-03T11:50:33.862Z,976.90
2023-02-03T11:51:33.842Z,976.99
2023-02-03T11:52:33.834Z,976.94
2023-02-03T11:53:35.165Z,976.95
2023-02-03T11:54:34.931Z,976.99
2023-02-03T11:55:33.824Z,977.01
2023-02-03T11:56:33.783Z,977.03
2023-02-03T11:57:33.762Z,977.04
2023-02-03T11:58:33.759Z,977.04
2023-02-03T11:59:33.755Z,977.10
2023-02-03T12:00:33.751Z,977.15
2023-02-03T12:01:33.782Z,977.17
2023-02-03T12:02:33.810Z,977.20
2023-02-03T12:03:33.704Z,977.21
2023-02-03T12:04:33.719Z,977.22
2023-02-03T12:05:33.683Z,977.31
2023-02-03T12:06:33.670Z,977.27
2023-02-03T12:07:33.718Z,977.30
2023-02-03T12:08:33.651Z,977.30
2023-02-03T12:09:33.645Z,977.33
2023-02-03T12:10:33.640Z,977.39
2023-02-03T12:11:33.682Z,977.38
2023-02-03T12:12:33.668Z,977.39
2023-02-03T12:13:33.618Z,977.46
2023-02-03T12:14:33.591Z,977.49
2023-02-03T12:15:33.585Z,977.51
2023-02-03T12:16:33.795Z,977.56
2023-02-03T12:17:33.598Z,977.58
2023-02-03T12:18:33.547Z,977.58
2023-02-03T12:19:33.530Z,977.63
2023-02-03T12:20:34.402Z,977.64
2023-02-03T12:21:33.562Z,977.60
2023-02-03T12:22:33.547Z,977.65
2023-02-03T12:23:33.522Z,977.68
2023-02-03T12:24:33.490Z,977.71
2023-02-03T12:25:33.524Z,977.72
2023-02-03T12:26:33.476Z,977.75
2023-02-03T12:27:33.561Z,977.81
2023-02-03T12:28:34.341Z,977.79